Time;durP1;ratioP1;P1;durP2;ratioP2;P2;SDS_P1;SDS_P2;PMS_P1;PMS_P2;Temp;Humidity;BMP_temperature;BMP_pressure;BME280_temperature;BME280_humidity;BME280_pressure;Samples;Min_cycle;Max_cycle;Signal;HPM_P1;HPM_P2
2023/10/12 00:00:24;;;;;;;41.10;19.48;;;;;;;17.97;100.00;101285.34;4778393;30;20063;-65
2023/10/12 00:02:50;;;;;;;35.00;18.55;;;;;;;17.93;100.00;101292.63;4779675;30;20135;-65
2023/10/12 00:05:19;;;;;;;36.47;19.17;;;;;;;17.94;100.00;101293.44;4779141;30;20114;-65
2023/10/12 00:07:49;;;;;;;36.50;19.27;;;;;;;17.86;100.00;101292.25;4777322;30;20446;-65
2023/10/12 00:12:47;;;;;;;38.15;20.77;;;;;;;17.84;100.00;101283.44;4779832;30;20514;-65
2023/10/12 00:17:53;;;;;;;42.50;20.13;;;;;;;17.72;100.00;101273.72;4778404;30;20055;-65
2023/10/12 00:20:34;;;;;;;41.72;21.40;;;;;;;17.72;100.00;101283.97;4778574;30;20059;-65
2023/10/12 00:23:13;;;;;;;40.38;18.42;;;;;;;17.73;100.00;101275.34;4779443;30;20066;-65
2023/10/12 00:25:55;;;;;;;49.25;22.48;;;;;;;17.70;100.00;101280.69;4779938;30;20059;-65
2023/10/12 00:28:28;;;;;;;42.28;20.98;;;;;;;17.64;100.00;101277.22;4776609;30;20075;-65
2023/10/12 00:31:05;;;;;;;41.53;21.83;;;;;;;17.63;100.00;101280.28;4777491;30;20055;-65
2023/10/12 00:33:33;;;;;;;42.33;21.20;;;;;;;17.58;100.00;101284.00;4778818;30;20067;-65
2023/10/12 00:36:04;;;;;;;42.67;20.90;;;;;;;17.59;100.00;101271.78;4779237;30;20640;-65
2023/10/12 00:38:32;;;;;;;41.20;21.80;;;;;;;17.68;100.00;101280.19;4776391;30;20415;-65
2023/10/12 00:41:06;;;;;;;47.50;21.85;;;;;;;17.66;100.00;101283.28;4779116;29;20096;-65
2023/10/12 00:43:49;;;;;;;42.97;22.80;;;;;;;17.59;100.00;101280.09;4778355;30;20578;-65
2023/10/12 00:49:14;;;;;;;43.22;21.70;;;;;;;17.56;100.00;101269.66;4777472;30;20055;-65
2023/10/12 00:51:51;;;;;;;40.53;21.05;;;;;;;17.47;100.00;101269.56;4778596;30;20074;-65
2023/10/12 00:54:28;;;;;;;41.08;21.55;;;;;;;17.43;100.00;101272.16;4765712;30;20067;-65
2023/10/12 00:57:03;;;;;;;44.88;20.65;;;;;;;17.47;100.00;101264.03;4778301;30;20055;-65
2023/10/12 00:59:31;;;;;;;42.13;20.38;;;;;;;17.44;100.00;101257.19;4777609;30;20071;-64
2023/10/12 01:02:01;;;;;;;43.83;20.85;;;;;;;17.41;100.00;101255.03;4762754;30;20797;-65
2023/10/12 01:04:30;;;;;;;40.15;20.30;;;;;;;17.42;100.00;101251.16;4762745;30;20074;-65
2023/10/12 01:06:59;;;;;;;37.42;20.73;;;;;;;17.46;100.00;101252.16;4778841;30;20526;-65
2023/10/12 01:09:38;;;;;;;40.20;21.58;;;;;;;17.42;100.00;101251.16;4777165;30;20047;-65
2023/10/12 01:12:13;;;;;;;41.88;20.75;;;;;;;17.43;100.00;101244.47;4778457;30;20427;-65
2023/10/12 01:14:47;;;;;;;;;;;;;;;17.50;100.00;101232.97;4778995;30;20059;-65
2023/10/12 01:17:17;;;;;;;43.03;20.55;;;;;;;17.49;100.00;101238.84;4777016;30;19929;-65
2023/10/12 01:19:45;;;;;;;46.58;21.13;;;;;;;17.60;100.00;101232.75;4778104;30;20411;-65
2023/10/12 01:22:25;;;;;;;40.45;20.65;;;;;;;17.71;100.00;101236.09;4778001;30;20062;-65
2023/10/12 01:27:23;;;;;;;45.92;22.08;;;;;;;17.57;100.00;101238.09;4778524;30;20067;-64
2023/10/12 01:29:52;;;;;;;41.42;22.23;;;;;;;17.60;100.00;101235.50;4775766;30;20051;-65
2023/10/12 01:32:24;;;;;;;41.88;21.27;;;;;;;17.51;100.00;101237.41;4775867;30;20067;-65
2023/10/12 01:34:53;;;;;;;40.33;21.15;;;;;;;17.47;100.00;101228.06;4778305;30;20055;-64
2023/10/12 01:37:22;;;;;;;47.28;21.20;;;;;;;17.52;100.00;101227.97;4778491;30;20066;-65
2023/10/12 01:39:57;;;;;;;43.97;21.20;;;;;;;17.54;100.00;101228.47;4761536;30;21498;-65
2023/10/12 01:48:04;;;;;;;38.67;19.80;;;;;;;17.29;100.00;101241.72;4776821;30;20063;-65
2023/10/12 01:50:39;;;;;;;43.85;22.33;;;;;;;17.28;100.00;101242.88;4776828;30;20063;-65
2023/10/12 01:53:33;;;;;;;45.92;22.00;;;;;;;17.24;100.00;101241.84;4776994;29;20086;-65
2023/10/12 01:56:00;;;;;;;45.15;21.90;;;;;;;17.18;100.00;101243.91;4777772;30;20082;-65
2023/10/12 01:58:29;;;;;;;41.17;20.80;;;;;;;17.14;100.00;101229.06;4762469;30;20066;-65
2023/10/12 02:01:07;;;;;;;51.38;23.80;;;;;;;17.17;100.00;101242.25;4777107;30;20056;-65
2023/10/12 02:03:42;;;;;;;49.30;23.08;;;;;;;17.14;100.00;101233.75;4777525;30;20431;-65
2023/10/12 02:06:14;;;;;;;44.38;21.50;;;;;;;17.15;100.00;101236.22;4780299;29;20051;-65
2023/10/12 02:08:46;;;;;;;45.50;22.20;;;;;;;17.14;100.00;101231.81;4779674;30;20063;-64
2023/10/12 02:13:47;;;;;;;42.65;21.60;;;;;;;17.21;100.00;101231.41;4781261;30;20071;-65
2023/10/12 02:16:30;;;;;;;40.00;22.88;;;;;;;17.22;100.00;101230.28;4765847;30;20055;-65
2023/10/12 02:19:00;;;;;;;44.13;21.50;;;;;;;17.25;100.00;101226.06;4780067;30;20070;-65
2023/10/12 02:21:28;;;;;;;40.95;21.55;;;;;;;17.28;100.00;101228.22;4781194;30;20062;-65
2023/10/12 02:24:06;;;;;;;41.25;21.27;;;;;;;17.36;100.00;101235.78;4780655;30;20051;-65
2023/10/12 02:34:21;;;;;;;43.10;23.63;;;;;;;17.32;100.00;101234.75;4781218;30;20059;-65
2023/10/12 02:39:40;;;;;;;51.33;23.35;;;;;;;17.23;100.00;101223.63;4763877;30;20063;-65
2023/10/12 02:47:40;;;;;;;39.33;21.17;;;;;;;17.32;100.00;101237.53;4779420;30;20082;-65
2023/10/12 02:52:38;;;;;;;43.80;22.67;;;;;;;17.24;100.00;101235.47;4780614;30;20066;-65
2023/10/12 02:55:17;;;;;;;44.00;22.27;;;;;;;17.16;100.00;101229.56;4780965;30;20052;-64
2023/10/12 03:00:55;;;;;;;42.60;22.02;;;;;;;17.19;100.00;101237.25;4752113;30;20630;-65
2023/10/12 03:03:33;;;;;;;49.05;22.85;;;;;;;17.14;100.00;101240.13;4775872;30;20063;-64
2023/10/12 03:06:07;;;;;;;44.40;21.13;;;;;;;17.08;100.00;101233.06;4779544;30;20074;-65
2023/10/12 03:11:25;;;;;;;46.88;22.00;;;;;;;17.03;100.00;101239.50;4779222;30;19933;-65
2023/10/12 03:14:00;;;;;;;42.63;21.98;;;;;;;17.02;100.00;101237.03;4780220;30;20063;-65
2023/10/12 03:16:34;;;;;;;44.30;22.67;;;;;;;17.05;100.00;101236.41;4763221;29;20051;-65
2023/10/12 03:19:22;;;;;;;45.28;21.90;;;;;;;17.22;100.00;101234.97;4778739;30;20055;-65
2023/10/12 03:21:51;;;;;;;44.63;22.48;;;;;;;17.51;100.00;101242.09;4780193;29;20066;-65
2023/10/12 03:24:37;;;;;;;42.53;21.13;;;;;;;17.61;100.00;101239.09;4779807;29;20051;-64
2023/10/12 03:27:11;;;;;;;45.95;22.30;;;;;;;17.39;100.00;101242.63;4780661;29;20055;-65
2023/10/12 03:29:54;;;;;;;43.85;22.40;;;;;;;17.30;100.00;101246.13;4778206;29;20063;-65
2023/10/12 03:32:23;;;;;;;45.35;23.00;;;;;;;17.14;100.00;101239.28;4781008;29;20043;-65
2023/10/12 03:37:40;;;;;;;45.28;23.40;;;;;;;17.11;100.00;101237.94;4780552;30;20526;-65
2023/10/12 03:40:50;;;;;;;42.08;22.48;;;;;;;16.89;100.00;101236.72;4777600;30;20055;-65
2023/10/12 03:43:26;;;;;;;45.88;23.08;;;;;;;16.77;100.00;101231.69;4779809;30;20059;-65
2023/10/12 03:46:07;;;;;;;44.65;22.42;;;;;;;16.68;100.00;101227.19;4779837;30;20059;-65
2023/10/12 03:48:59;;;;;;;45.25;22.92;;;;;;;16.62;100.00;101227.28;4777290;30;20114;-64
2023/10/12 03:51:38;;;;;;;45.28;21.08;;;;;;;16.61;100.00;101228.41;4778296;30;20055;-65
2023/10/12 04:02:58;;;;;;;47.83;23.30;;;;;;;16.76;100.00;101230.03;4780157;30;20063;-65
2023/10/12 04:08:17;;;;;;;46.83;22.90;;;;;;;16.71;100.00;101230.16;4777629;30;20419;-64
2023/10/12 04:13:55;;;;;;;44.08;22.38;;;;;;;16.73;100.00;101235.38;4779795;30;20059;-65
2023/10/12 04:16:27;;;;;;;46.30;22.13;;;;;;;16.78;100.00;101229.75;4778967;30;20427;-64
2023/10/12 04:21:27;;;;;;;39.08;20.10;;;;;;;16.83;100.00;101231.59;4778596;30;20070;-67
2023/10/12 04:27:01;;;;;;;43.13;21.00;;;;;;;16.76;100.00;101229.22;4779207;30;20721;-64
2023/10/12 04:29:31;;;;;;;45.03;21.98;;;;;;;16.61;100.00;101227.56;4774321;29;20047;-64
2023/10/12 04:32:16;;;;;;;39.42;21.05;;;;;;;16.87;100.00;101227.09;4777439;30;20066;-68
2023/10/12 04:34:50;;;;;;;44.65;21.92;;;;;;;17.31;100.00;101235.91;4762132;30;20059;-66
2023/10/12 04:37:27;;;;;;;49.42;21.85;;;;;;;17.21;100.00;101241.66;4779719;29;20067;-66
2023/10/12 04:40:37;;;;;;;37.33;20.70;;;;;;;17.08;100.00;101235.81;4776304;30;20395;-67
2023/10/12 04:42:46;;;;;;;43.58;20.67;;;;;;;16.88;100.00;101243.38;4777961;29;20088;-66
2023/10/12 04:47:49;;;;;;;42.83;21.02;;;;;;;16.81;100.00;101239.38;4778315;30;20059;-66
2023/10/12 04:50:44;;;;;;;50.70;23.30;;;;;;;16.70;100.00;101242.31;4776114;29;20070;-66
2023/10/12 04:53:14;;;;;;;37.90;20.30;;;;;;;16.67;100.00;101242.94;4778921;29;20059;-67
2023/10/12 04:55:47;;;;;;;36.38;20.13;;;;;;;16.68;100.00;101232.72;4779108;29;20068;-66
2023/10/12 04:58:31;;;;;;;40.37;20.73;;;;;;;16.66;100.00;101235.75;4777365;29;20075;-66
2023/10/12 05:01:15;;;;;;;42.65;22.15;;;;;;;16.72;100.00;101244.78;4777002;30;20324;-63
2023/10/12 05:04:04;;;;;;;42.75;22.55;;;;;;;16.92;100.00;101246.34;4778914;29;20066;-63
2023/10/12 05:06:34;;;;;;;41.42;20.90;;;;;;;16.89;100.00;101253.31;4777754;30;20062;-63
2023/10/12 05:09:11;;;;;;;42.47;20.70;;;;;;;16.83;100.00;101249.00;4774076;29;20051;-63
2023/10/12 05:11:39;;;;;;;43.72;20.55;;;;;;;16.71;100.00;101254.22;4777858;29;20059;-63
2023/10/12 05:14:14;;;;;;;40.75;19.75;;;;;;;16.51;100.00;101258.97;4778626;29;20059;-63
2023/10/12 05:16:45;;;;;;;42.35;20.67;;;;;;;16.50;100.00;101257.34;4778512;29;20070;-64
2023/10/12 05:19:13;;;;;;;41.13;21.40;;;;;;;16.36;100.00;101263.66;4776359;29;20887;-64
2023/10/12 05:21:43;;;;;;;43.63;21.35;;;;;;;16.35;100.00;101261.19;4776680;29;20066;-63
2023/10/12 05:24:12;;;;;;;38.78;20.52;;;;;;;16.33;100.00;101267.00;4777542;29;20063;-64
2023/10/12 05:26:51;;;;;;;43.58;21.88;;;;;;;16.32;100.00;101265.38;4777335;30;20063;-63
2023/10/12 05:32:18;;;;;;;51.33;22.33;;;;;;;16.33;100.00;101274.50;4778535;29;20142;-65
2023/10/12 05:34:46;;;;;;;41.92;22.40;;;;;;;16.27;100.00;101282.03;4778680;29;20066;-65
2023/10/12 05:39:52;;;;;;;45.60;20.58;;;;;;;16.26;100.00;101291.44;4776277;29;20071;-66
2023/10/12 05:42:20;;;;;;;48.00;20.83;;;;;;;16.22;100.00;101284.88;4783335;29;20048;-65
2023/10/12 05:45:17;;;;;;;40.25;20.48;;;;;;;16.52;100.00;101283.53;4782025;30;20067;-67
2023/10/12 05:47:44;;;;;;;;;;;;;;;16.63;100.00;101295.22;4782383;30;20074;-67
2023/10/12 05:50:15;;;;;;;44.10;21.15;;;;;;;17.02;100.00;101295.91;4780057;30;19933;-67
2023/10/12 05:52:43;;;;;;;38.65;21.35;;;;;;;17.19;100.00;101289.78;4781792;29;20393;-67
2023/10/12 05:55:24;;;;;;;37.83;19.60;;;;;;;17.35;100.00;101297.75;4781470;30;20086;-67
2023/10/12 05:57:55;;;;;;;42.30;20.33;;;;;;;17.61;100.00;101311.06;4781401;30;20495;-67
2023/10/12 06:00:35;;;;;;;39.95;20.00;;;;;;;17.60;100.00;101299.16;4781170;30;20388;-67
2023/10/12 06:03:05;;;;;;;40.00;19.42;;;;;;;17.62;100.00;101306.31;4782572;30;20070;-67
2023/10/12 06:05:34;;;;;;;42.45;20.40;;;;;;;17.64;100.00;101299.34;4783332;30;20080;-67
2023/10/12 06:08:04;;;;;;;32.72;18.85;;;;;;;17.70;100.00;101306.41;4781421;30;20070;-67
2023/10/12 06:10:33;;;;;;;41.67;19.48;;;;;;;17.53;100.00;101306.25;4783484;30;20062;-67
2023/10/12 06:13:05;;;;;;;38.50;19.25;;;;;;;17.53;100.00;101309.00;4784498;30;20047;-67
2023/10/12 06:15:39;;;;;;;32.97;18.65;;;;;;;17.54;100.00;101310.66;4783509;30;20415;-68
2023/10/12 06:18:21;;;;;;;35.78;19.33;;;;;;;17.65;100.00;101317.59;4764275;30;20410;-68
2023/10/12 06:20:58;;;;;;;41.42;18.58;;;;;;;17.67;100.00;101317.28;4782624;30;20059;-68
2023/10/12 06:23:28;;;;;;;37.58;19.38;;;;;;;17.56;100.00;101322.25;4781879;30;20063;-69
2023/10/12 06:25:57;;;;;;;35.42;19.02;;;;;;;17.51;100.00;101333.41;4781512;30;20055;-67
2023/10/12 06:28:34;;;;;;;37.47;18.30;;;;;;;17.55;100.00;101329.72;4780036;30;20063;-67
2023/10/12 06:31:04;;;;;;;36.70;18.67;;;;;;;17.69;100.00;101342.72;4781739;29;20051;-67
2023/10/12 06:33:40;;;;;;;43.30;19.25;;;;;;;17.75;100.00;101335.94;4782215;30;20085;-67
2023/10/12 06:36:16;;;;;;;37.78;19.35;;;;;;;17.81;100.00;101336.66;4782726;30;20059;-67
2023/10/12 06:44:25;;;;;;;45.90;19.65;;;;;;;17.97;100.00;101340.72;4782630;30;20073;-67
2023/10/12 06:46:57;;;;;;;42.28;22.27;;;;;;;17.72;100.00;101339.31;4768562;30;20070;-68
2023/10/12 06:49:29;;;;;;;38.05;19.95;;;;;;;17.89;100.00;101349.75;4780214;30;20070;-67
2023/10/12 06:52:01;;;;;;;43.47;21.55;;;;;;;17.96;100.00;101344.63;4779421;29;20078;-67
2023/10/12 07:02:30;;;;;;;42.58;20.65;;;;;;;18.08;100.00;101349.63;4782210;30;20067;-67
2023/10/12 07:05:04;;;;;;;38.45;21.63;;;;;;;18.03;100.00;101337.84;4782037;30;20064;-67
2023/10/12 07:07:42;;;;;;;48.15;21.52;;;;;;;18.10;100.00;101349.31;4781211;30;20063;-67
2023/10/12 07:12:49;;;;;;;56.40;25.30;;;;;;;18.36;100.00;101345.94;4782741;30;20082;-67
2023/10/12 07:15:23;;;;;;;47.22;26.00;;;;;;;18.50;100.00;101356.97;4783734;30;20058;-67
2023/10/12 07:17:54;;;;;;;49.97;24.08;;;;;;;18.78;100.00;101360.38;4766364;30;20085;-67
2023/10/12 07:23:14;;;;;;;43.72;20.92;;;;;;;19.20;100.00;101364.88;4782482;30;20063;-68
2023/10/12 07:25:59;;;;;;;49.53;21.67;;;;;;;19.31;100.00;101366.22;4780943;30;20063;-67
2023/10/12 07:28:33;;;;;;;52.33;21.80;;;;;;;19.36;100.00;101370.00;4777415;30;20178;-68
2023/10/12 07:33:33;;;;;;;60.92;29.80;;;;;;;19.46;100.00;101358.63;4779696;30;20070;-67
2023/10/12 07:36:17;;;;;;;60.97;28.15;;;;;;;19.57;100.00;101370.22;4780121;30;20055;-67
2023/10/12 07:39:14;;;;;;;;;;;;;;;19.80;100.00;101379.25;4780640;30;20094;-67
2023/10/12 07:41:41;;;;;;;55.78;26.58;;;;;;;19.92;100.00;101380.59;4780771;30;19957;-67
2023/10/12 07:44:10;;;;;;;60.45;28.05;;;;;;;19.96;100.00;101381.63;4780236;30;20076;-67
2023/10/12 07:46:38;;;;;;;52.67;27.13;;;;;;;20.10;100.00;101387.81;4781012;30;20064;-67
2023/10/12 07:57:36;;;;;;;58.30;28.08;;;;;;;20.45;100.00;101394.53;4781243;30;20070;-67
2023/10/12 08:13:26;;;;;;;51.28;23.95;;;;;;;20.75;100.00;101391.88;4781211;30;20078;-68
2023/10/12 08:15:58;;;;;;;48.22;25.02;;;;;;;20.54;100.00;101392.59;4781618;30;20094;-68
2023/10/12 08:21:32;;;;;;;52.78;24.75;;;;;;;20.73;100.00;101385.84;4779440;30;20066;-68
2023/10/12 08:24:09;;;;;;;54.05;24.90;;;;;;;20.73;100.00;101385.84;4781313;30;20071;-67
2023/10/12 08:37:17;;;;;;;49.75;23.73;;;;;;;21.36;100.00;101385.34;4779597;30;20980;-67
2023/10/12 08:45:09;;;;;;;50.03;24.13;;;;;;;21.50;100.00;101387.91;4778584;30;20066;-67
2023/10/12 08:50:14;;;;;;;43.90;21.77;;;;;;;21.64;99.28;101384.88;4778265;30;21538;-67
2023/10/12 08:52:50;;;;;;;49.35;22.00;;;;;;;21.78;98.73;101400.56;4778637;30;20081;-67
2023/10/12 08:55:24;;;;;;;45.65;23.20;;;;;;;21.82;100.00;101393.16;4779400;29;20063;-67
2023/10/12 08:58:06;;;;;;;39.25;21.17;;;;;;;21.74;98.23;101390.09;4777580;30;20055;-67
2023/10/12 09:01:26;;;;;;;43.47;20.40;;;;;;;21.85;97.47;101398.06;4778948;30;20416;-68
2023/10/12 09:03:46;;;;;;;46.45;22.67;;;;;;;21.74;99.26;101395.66;4779983;29;20063;-67
2023/10/12 09:09:05;;;;;;;43.28;22.25;;;;;;;21.90;98.81;101403.44;4779242;30;20055;-68
2023/10/12 09:11:34;;;;;;;44.13;21.88;;;;;;;21.93;98.25;101402.75;4779542;30;20062;-67
2023/10/12 09:14:11;;;;;;;46.67;22.77;;;;;;;21.93;98.78;101397.19;4780711;30;20056;-67
2023/10/12 09:16:43;;;;;;;51.33;24.80;;;;;;;21.93;99.21;101397.19;4779857;30;20055;-67
2023/10/12 09:19:28;;;;;;;49.78;24.00;;;;;;;21.89;98.55;101396.22;4778968;30;20063;-67
2023/10/12 09:22:00;;;;;;;48.05;23.70;;;;;;;21.94;99.13;101400.81;4780558;30;20055;-67
2023/10/12 09:24:36;;;;;;;52.03;25.58;;;;;;;21.89;100.00;101410.16;4780243;30;20062;-67
2023/10/12 09:27:12;;;;;;;47.25;23.77;;;;;;;21.88;98.44;101400.16;4780254;30;20056;-68
2023/10/12 09:29:57;;;;;;;43.65;24.13;;;;;;;21.82;99.73;101393.16;4779786;30;20068;-68
2023/10/12 09:32:28;;;;;;;47.75;22.70;;;;;;;22.01;98.59;101395.50;4780482;30;20051;-68
2023/10/12 09:35:13;;;;;;;44.55;22.30;;;;;;;22.12;97.30;101393.09;4779866;30;20060;-67
2023/10/12 09:37:44;;;;;;;44.03;21.88;;;;;;;22.22;97.23;101397.47;4780020;30;20070;-67
2023/10/12 09:40:34;;;;;;;44.88;21.90;;;;;;;22.34;95.94;101391.94;4780179;29;20086;-67
2023/10/12 09:43:06;;;;;;;45.05;21.65;;;;;;;22.48;94.97;101394.44;4778895;30;20059;-67
2023/10/12 09:45:44;;;;;;;43.38;22.02;;;;;;;22.63;94.25;101397.81;4778495;30;20070;-68
2023/10/12 09:48:24;;;;;;;47.17;24.20;;;;;;;22.65;93.92;101392.69;4777565;30;20067;-67
2023/10/12 09:50:56;;;;;;;42.70;20.92;;;;;;;22.56;93.10;101389.97;4778616;30;20082;-67
2023/10/12 09:53:35;;;;;;;43.97;21.83;;;;;;;22.44;95.02;101387.94;4778759;30;20086;-68
2023/10/12 09:56:24;;;;;;;44.92;20.85;;;;;;;22.50;93.71;101386.56;4778404;30;20070;-67
2023/10/12 09:59:07;;;;;;;43.30;21.48;;;;;;;22.63;92.18;101378.28;4777896;30;20059;-67
2023/10/12 10:09:58;;;;;;;38.90;20.55;;;;;;;23.01;90.77;101382.78;4774163;30;20067;-67
2023/10/12 10:12:28;;;;;;;40.15;20.75;;;;;;;23.12;89.45;101382.34;4779798;30;20063;-67
2023/10/12 10:15:10;;;;;;;42.83;20.92;;;;;;;23.14;89.73;101377.22;4779847;30;20056;-68
2023/10/12 10:17:48;;;;;;;41.70;20.02;;;;;;;23.32;87.61;101391.81;4776799;30;20059;-68
2023/10/12 10:23:07;;;;;;;41.90;21.50;;;;;;;23.31;88.88;101379.81;4779119;29;20059;-66
2023/10/12 10:25:45;;;;;;;41.10;21.17;;;;;;;23.37;88.04;101377.63;4778945;30;20076;-67
2023/10/12 10:28:32;;;;;;;43.97;22.67;;;;;;;23.42;88.20;101379.38;4781057;30;20089;-67
2023/10/12 10:31:01;;;;;;;44.55;22.48;;;;;;;23.45;88.91;101390.66;4781508;30;20068;-67
2023/10/12 10:33:36;;;;;;;41.53;22.58;;;;;;;23.43;88.08;101375.41;4781718;30;20067;-68
2023/10/12 10:36:10;;;;;;;38.83;20.35;;;;;;;23.44;87.71;101377.84;4781988;30;20059;-67
2023/10/12 10:38:53;;;;;;;40.13;21.58;;;;;;;23.66;86.99;101372.13;4781445;30;20074;-68
2023/10/12 10:44:27;;;;;;;42.40;23.38;;;;;;;23.77;86.37;101378.88;4782395;30;20071;-67
2023/10/12 10:47:06;;;;;;;47.35;23.83;;;;;;;23.85;86.64;101369.53;4783163;30;20058;-67
2023/10/12 10:49:34;;;;;;;42.15;21.92;;;;;;;23.95;84.93;101359.03;4780404;30;20067;-68
2023/10/12 10:54:37;;;;;;;46.78;23.85;;;;;;;24.00;83.76;101350.41;4781467;30;20067;-67
2023/10/12 10:57:15;;;;;;;46.85;23.65;;;;;;;24.29;84.50;101343.69;4780750;30;20055;-68
2023/10/12 10:59:44;;;;;;;40.55;20.55;;;;;;;24.37;82.37;101344.69;4779816;30;20067;-67
2023/10/12 11:02:15;;;;;;;47.25;24.52;;;;;;;24.35;82.04;101340.63;4780884;30;20063;-67
2023/10/12 11:04:45;;;;;;;41.08;21.73;;;;;;;24.50;81.57;101331.47;4780976;30;20094;-67
2023/10/12 11:07:17;;;;;;;43.83;22.58;;;;;;;24.72;81.52;101331.25;4781260;30;20078;-67
2023/10/12 11:12:30;;;;;;;41.72;23.40;;;;;;;24.73;80.92;101316.06;4782119;30;20063;-67
2023/10/12 11:15:01;;;;;;;47.65;22.60;;;;;;;24.70;81.10;101317.59;4781053;30;20053;-67
2023/10/12 11:17:56;;;;;;;46.30;23.20;;;;;;;24.51;80.38;101304.31;4780339;30;20082;-67
2023/10/12 11:20:49;;;;;;;48.53;23.97;;;;;;;24.28;81.05;101304.88;4781488;30;20711;-67
2023/10/12 11:23:19;;;;;;;46.15;21.63;;;;;;;24.33;81.40;101315.81;4781386;30;20066;-67
2023/10/12 11:25:47;;;;;;;45.83;22.98;;;;;;;24.33;81.09;101306.63;4781993;30;20384;-67
2023/10/12 11:28:22;;;;;;;45.40;23.83;;;;;;;24.31;82.00;101309.78;4780354;30;20055;-68
2023/10/12 11:31:01;;;;;;;49.80;25.33;;;;;;;24.27;81.89;101301.28;4781779;30;20062;-67
2023/10/12 11:33:32;;;;;;;41.17;21.48;;;;;;;24.29;81.71;101303.72;4782083;29;20080;-67
2023/10/12 11:36:03;;;;;;;46.13;22.70;;;;;;;24.38;81.34;101295.97;4780804;30;20058;-68
2023/10/12 11:38:33;;;;;;;45.00;23.05;;;;;;;24.43;81.90;101295.72;4779673;29;20059;-68
2023/10/12 11:41:13;;;;;;;47.88;24.38;;;;;;;24.68;80.61;101283.56;4780942;30;20115;-67
2023/10/12 11:43:57;;;;;;;44.53;23.10;;;;;;;24.61;79.59;101273.00;4781215;30;20079;-67
2023/10/12 11:46:41;;;;;;;48.50;24.98;;;;;;;24.74;80.15;101268.13;4782060;30;20067;-67
2023/10/12 11:49:10;;;;;;;45.47;25.65;;;;;;;24.82;80.61;101264.38;4779519;30;20059;-67
2023/10/12 11:51:57;;;;;;;48.03;24.58;;;;;;;24.95;79.24;101255.88;4781076;30;20055;-67
2023/10/12 11:54:33;;;;;;;45.22;23.15;;;;;;;25.11;79.84;101255.03;4782793;29;20066;-67
2023/10/12 11:57:04;;;;;;;48.72;25.17;;;;;;;25.27;78.06;101250.19;4781155;30;20082;-67
2023/10/12 11:59:35;;;;;;;48.20;25.83;;;;;;;25.31;78.47;101250.31;4779945;30;20059;-67
2023/10/12 12:02:08;;;;;;;51.67;25.33;;;;;;;25.25;77.69;101243.34;4778432;30;20055;-67
2023/10/12 12:04:40;;;;;;;44.45;22.45;;;;;;;25.25;77.58;101246.13;4778345;30;20184;-67
2023/10/12 12:07:34;;;;;;;40.72;21.10;;;;;;;25.22;76.37;101242.91;4779673;30;20090;-67
2023/10/12 12:10:07;;;;;;;47.60;23.40;;;;;;;24.99;77.18;101241.94;4777958;29;20090;-67
2023/10/12 12:12:38;;;;;;;41.53;21.17;;;;;;;24.82;79.88;101224.34;4775531;29;20066;-67
2023/10/12 12:15:08;;;;;;;51.53;24.40;;;;;;;24.72;79.31;101227.69;4779041;29;20090;-67
2023/10/12 12:17:41;;;;;;;50.15;25.20;;;;;;;24.63;80.12;101225.88;4778826;29;20054;-67
2023/10/12 12:20:16;;;;;;;37.20;21.42;;;;;;;24.51;80.27;101226.78;4779333;29;20055;-67
2023/10/12 12:22:56;;;;;;;40.85;20.83;;;;;;;24.49;79.26;101212.34;4780652;29;20143;-67
2023/10/12 12:25:38;;;;;;;42.85;20.08;;;;;;;24.51;79.78;101209.19;4779892;29;20066;-68
2023/10/12 12:28:14;;;;;;;43.08;19.98;;;;;;;24.99;77.69;101213.97;4776513;29;20147;-68
2023/10/12 12:30:47;;;;;;;35.28;18.83;;;;;;;25.01;75.51;101204.03;4777243;29;20066;-68
2023/10/12 12:33:23;;;;;;;42.30;20.65;;;;;;;25.28;74.67;101214.63;4779018;29;20081;-67
2023/10/12 12:36:10;;;;;;;38.88;19.52;;;;;;;25.37;74.17;101206.81;4778380;29;20056;-68
2023/10/12 12:41:23;;;;;;;37.20;18.73;;;;;;;25.08;74.12;101208.97;4779659;30;20066;-68
2023/10/12 12:44:00;;;;;;;37.30;17.27;;;;;;;24.94;73.67;101213.06;4779558;29;20066;-68
2023/10/12 12:46:29;;;;;;;34.08;16.80;;;;;;;24.88;73.64;101208.91;4779592;29;20055;-69
2023/10/12 12:48:58;;;;;;;30.13;15.80;;;;;;;24.98;74.54;101206.75;4778823;29;20066;-68
2023/10/12 12:51:29;;;;;;;31.77;18.33;;;;;;;24.95;74.18;101211.06;4779365;30;20074;-68
2023/10/12 12:54:02;;;;;;;40.00;18.15;;;;;;;24.93;74.07;101211.44;4782109;29;20047;-67
2023/10/12 12:56:31;;;;;;;33.03;17.67;;;;;;;24.91;74.44;101213.78;4777618;29;20166;-68
2023/10/12 12:59:00;;;;;;;30.02;15.73;;;;;;;24.92;70.45;101209.81;4761727;30;20062;-68
2023/10/12 13:01:30;;;;;;;28.80;15.18;;;;;;;25.01;71.06;101197.59;4778175;30;20047;-67
2023/10/12 13:04:01;;;;;;;28.65;15.73;;;;;;;24.93;70.36;101200.22;4777669;29;20047;-68
2023/10/12 13:06:33;;;;;;;34.95;18.02;;;;;;;24.82;70.61;101196.38;4778719;30;20067;-68
2023/10/12 13:09:02;;;;;;;32.22;16.67;;;;;;;24.85;71.56;101194.84;4776629;30;20062;-68
2023/10/12 13:11:32;;;;;;;29.77;16.88;;;;;;;24.80;70.18;101193.09;4777823;30;20066;-68
2023/10/12 13:14:00;;;;;;;27.45;15.98;;;;;;;24.90;71.94;101186.97;4776684;30;20055;-68
2023/10/12 13:16:29;;;;;;;39.95;16.27;;;;;;;24.95;71.07;101183.09;4778443;30;20059;-68
2023/10/12 13:19:08;;;;;;;34.88;17.02;;;;;;;24.96;71.28;101181.91;4778629;30;20052;-68
2023/10/12 13:21:43;;;;;;;32.05;16.25;;;;;;;24.95;70.34;101178.31;4777107;30;20676;-68
2023/10/12 13:24:35;;;;;;;32.47;15.82;;;;;;;25.00;71.57;101171.59;4779395;30;20070;-68
2023/10/12 13:27:20;;;;;;;33.85;16.02;;;;;;;25.21;72.71;101165.66;4778223;30;20067;-68
2023/10/12 13:30:00;;;;;;;31.92;16.40;;;;;;;25.33;70.40;101170.31;4778826;30;20066;-69
2023/10/12 13:33:16;;;;;;;37.22;17.17;;;;;;;25.47;69.51;101174.59;4779157;30;20063;-68
2023/10/12 13:36:05;;;;;;;30.63;15.82;;;;;;;25.53;70.46;101167.56;4772989;30;20071;-68
2023/10/12 13:38:56;;;;;;;29.83;15.73;;;;;;;25.66;68.91;101170.19;4778797;29;20063;-68
2023/10/12 13:41:29;;;;;;;30.20;16.10;;;;;;;25.63;68.99;101174.56;4779730;29;20062;-67
2023/10/12 13:44:13;;;;;;;34.85;15.82;;;;;;;25.70;68.77;101177.50;4763712;30;20050;-67
2023/10/12 13:46:56;;;;;;;31.67;17.05;;;;;;;25.82;68.10;101175.72;4779577;30;20707;-67
2023/10/12 13:49:28;;;;;;;38.47;17.60;;;;;;;25.91;68.33;101181.91;4761322;30;20059;-67
2023/10/12 13:51:58;;;;;;;33.58;17.20;;;;;;;25.94;69.62;101169.94;4765553;30;20059;-67
2023/10/12 13:54:45;;;;;;;31.33;17.23;;;;;;;26.08;69.17;101160.16;4776406;30;20105;-67
2023/10/12 13:57:24;;;;;;;36.58;16.83;;;;;;;25.97;69.19;101159.97;4782335;29;20086;-67
2023/10/12 14:00:04;;;;;;;31.88;15.98;;;;;;;25.93;69.84;101176.72;4778655;29;20059;-67
2023/10/12 14:03:01;;;;;;;;;;;;;;;;;;;;;
2023/10/12 14:05:40;;;;;;;39.15;16.92;;;;;;;26.00;69.64;101178.88;4778565;30;20070;-67
2023/10/12 14:08:46;;;;;;;31.67;15.35;;;;;;;26.03;69.61;101178.94;4779363;30;20113;-67
2023/10/12 14:11:24;;;;;;;26.58;14.90;;;;;;;25.97;69.23;101168.38;4779823;30;20075;-69
2023/10/12 14:13:54;;;;;;;24.75;14.60;;;;;;;25.75;68.65;101168.78;4782348;30;20066;-67
2023/10/12 14:16:34;;;;;;;29.90;14.73;;;;;;;25.55;69.75;101158.78;4782413;30;20055;-67
2023/10/12 14:19:07;;;;;;;22.48;14.02;;;;;;;25.60;70.74;101161.25;4783494;30;20055;-67
2023/10/12 14:21:41;;;;;;;28.63;15.52;;;;;;;25.66;70.54;101161.78;4767289;30;20082;-67
2023/10/12 14:24:53;;;;;;;31.73;14.43;;;;;;;25.55;70.08;101158.78;4776180;30;20063;-67
2023/10/12 14:27:30;;;;;;;25.25;13.75;;;;;;;25.50;69.61;101157.88;4751529;30;20085;-68